createdAt,value
2022-11-29T00:02:30.070Z,63.52
2022-11-29T00:07:37.084Z,63.72
2022-11-29T00:12:43.278Z,63.36
2022-11-29T00:17:48.501Z,63.13
2022-11-29T00:22:53.398Z,64.10
2022-11-29T00:28:23.050Z,63.53
2022-11-29T00:33:30.802Z,63.47
2022-11-29T00:38:45.025Z,63.34
2022-11-29T00:43:50.185Z,63.47
2022-11-29T00:48:55.993Z,63.43
2022-11-29T00:54:03.273Z,63.25
2022-11-29T00:59:05.464Z,63.57
2022-11-29T01:04:09.691Z,63.78
2022-11-29T01:09:19.443Z,63.42
2022-11-29T01:14:28.157Z,62.88
2022-11-29T01:19:31.495Z,62.61
2022-11-29T01:24:35.957Z,62.99
2022-11-29T01:29:43.511Z,63.04
2022-11-29T01:34:46.982Z,62.32
2022-11-29T01:39:58.814Z,62.98
2022-11-29T01:45:25.281Z,62.70
2022-11-29T01:50:29.624Z,62.95
2022-11-29T01:55:43.461Z,62.74
2022-11-29T02:05:16.507Z,62.12
2022-11-29T02:10:47.894Z,63.20
2022-11-29T02:16:23.892Z,62.48
2022-11-29T02:22:04.195Z,62.92
2022-11-29T02:28:05.524Z,62.10
2022-11-29T02:33:37.779Z,62.82
2022-11-29T02:39:22.095Z,62.24
2022-11-29T02:44:47.956Z,62.48
2022-11-29T02:50:15.331Z,62.50
2022-11-29T02:55:44.393Z,62.67
2022-11-29T03:01:29.224Z,62.60
2022-11-29T03:07:05.284Z,62.74
2022-11-29T03:12:47.336Z,62.80
2022-11-29T03:18:33.110Z,62.67
2022-11-29T03:24:06.076Z,62.73
2022-11-29T03:29:26.117Z,62.89
2022-11-29T03:35:19.537Z,63.09
2022-11-29T03:40:44.769Z,63.44
2022-11-29T03:46:05.950Z,62.99
2022-11-29T03:51:56.067Z,63.62
2022-11-29T03:56:59.795Z,63.75
2022-11-29T04:02:52.104Z,63.50
2022-11-29T04:08:22.349Z,63.94
2022-11-29T04:14:43.938Z,63.54
2022-11-29T04:20:45.440Z,63.82
2022-11-29T04:26:09.870Z,63.70
2022-11-29T04:31:37.528Z,63.32
2022-11-29T04:37:51.864Z,62.98
2022-11-29T04:43:53.404Z,62.48
2022-11-29T04:49:24.583Z,62.86
2022-11-29T04:55:01.828Z,63.13
2022-11-29T05:08:37.090Z,63.46
2022-11-29T05:13:56.488Z,63.42
2022-11-29T05:19:19.353Z,63.56
2022-11-29T05:24:58.913Z,62.72
2022-11-29T05:30:09.396Z,62.88
2022-11-29T05:35:47.846Z,63.57
2022-11-29T05:41:17.507Z,63.98
2022-11-29T05:46:33.060Z,63.37
2022-11-29T05:51:48.914Z,63.59
2022-11-29T05:57:34.277Z,63.86
2022-11-29T06:03:18.472Z,64.27
2022-11-29T06:08:46.433Z,64.27
2022-11-29T06:14:18.093Z,64.37
2022-11-29T06:19:59.656Z,64.34
2022-11-29T06:25:27.583Z,64.24
2022-11-29T06:31:04.068Z,64.60
2022-11-29T06:36:45.127Z,64.48
2022-11-29T06:41:50.349Z,64.61
2022-11-29T06:47:06.411Z,65.00
2022-11-29T06:52:17.291Z,65.16
2022-11-29T06:58:06.393Z,65.34
2022-11-29T07:03:28.076Z,64.96
2022-11-29T07:08:33.626Z,65.08
2022-11-29T07:13:40.009Z,65.05
2022-11-29T07:19:09.080Z,64.88
2022-11-29T07:24:55.973Z,65.17
2022-11-29T07:30:11.938Z,64.83
2022-11-29T07:35:30.873Z,64.55
2022-11-29T07:40:52.099Z,64.98
2022-11-29T07:45:58.601Z,65.16
2022-11-29T07:51:02.346Z,65.08
2022-11-29T07:56:07.696Z,65.14
2022-11-29T08:01:13.111Z,63.96
2022-11-29T08:06:16.952Z,54.67
2022-11-29T08:11:31.002Z,49.91
2022-11-29T08:16:32.933Z,43.71
2022-11-29T08:21:36.177Z,47.61
2022-11-29T08:26:42.850Z,52.06
2022-11-29T08:31:45.658Z,54.81
2022-11-29T08:36:51.882Z,54.02
2022-11-29T08:41:59.275Z,52.53
2022-11-29T08:47:21.251Z,49.38
2022-11-29T08:52:43.340Z,47.17
2022-11-29T08:57:45.554Z,46.04
2022-11-29T09:02:52.574Z,43.22
2022-11-29T09:07:55.770Z,46.07
2022-11-29T09:12:57.601Z,44.19
2022-11-29T09:18:04.254Z,46.32
2022-11-29T09:23:06.814Z,47.24
2022-11-29T09:28:22.364Z,46.29
2022-11-29T09:33:35.556Z,47.98
2022-11-29T09:38:38.445Z,47.53
2022-11-29T09:44:03.234Z,46.41
2022-11-29T09:49:24.120Z,47.09
2022-11-29T09:55:00.517Z,44.56
2022-11-29T10:00:07.738Z,46.00
2022-11-29T10:05:51.490Z,45.46
2022-11-29T10:11:10.106Z,44.82
2022-11-29T10:16:21.389Z,45.02
2022-11-29T10:21:30.019Z,45.07
2022-11-29T10:26:35.619Z,45.52
2022-11-29T10:31:44.131Z,45.62
2022-11-29T10:36:52.967Z,43.79
2022-11-29T10:47:20.350Z,44.76
2022-11-29T10:52:23.547Z,44.58
2022-11-29T10:57:25.749Z,44.46
2022-11-29T11:02:28.329Z,43.89
2022-11-29T11:07:36.258Z,42.65
2022-11-29T11:13:00.360Z,43.07
2022-11-29T11:18:11.254Z,42.38
2022-11-29T11:23:42.723Z,41.54
2022-11-29T11:29:05.316Z,41.89
2022-11-29T11:34:34.239Z,41.56
2022-11-29T11:39:36.416Z,43.95
2022-11-29T11:45:01.209Z,42.17
2022-11-29T11:50:09.434Z,43.72
2022-11-29T11:55:29.953Z,41.38
2022-11-29T12:01:14.028Z,41.40
2022-11-29T12:06:38.260Z,41.86
2022-11-29T12:12:27.390Z,41.73
2022-11-29T12:17:47.436Z,41.33
2022-11-29T12:23:19.637Z,41.64
2022-11-29T12:28:34.222Z,41.52
2022-11-29T12:33:46.998Z,40.55
2022-11-29T12:39:20.363Z,39.86
2022-11-29T12:44:31.123Z,41.22
2022-11-29T12:49:51.676Z,42.68
2022-11-29T12:55:25.090Z,40.88
2022-11-29T13:00:33.970Z,42.30
2022-11-29T13:06:08.220Z,40.66
2022-11-29T13:11:37.328Z,41.34
2022-11-29T13:16:56.303Z,40.12
2022-11-29T13:22:10.393Z,39.69
2022-11-29T13:27:23.329Z,40.67
2022-11-29T13:32:57.249Z,40.22
2022-11-29T13:38:34.872Z,40.11
2022-11-29T13:44:03.306Z,40.12
2022-11-29T13:49:06.129Z,41.63
2022-11-29T13:54:30.886Z,40.36
2022-11-29T13:59:36.069Z,42.09
2022-11-29T14:04:46.254Z,41.14
2022-11-29T14:10:03.934Z,41.65
2022-11-29T14:15:22.607Z,41.68
2022-11-29T14:20:28.584Z,42.65
2022-11-29T14:26:05.551Z,41.55
2022-11-29T14:31:12.491Z,42.77
2022-11-29T14:36:26.350Z,42.58
2022-11-29T14:41:54.224Z,41.83
2022-11-29T14:47:13.458Z,42.03
2022-11-29T14:52:15.324Z,43.53
2022-11-29T14:57:45.155Z,42.16
2022-11-29T15:03:19.026Z,42.18
2022-11-29T15:08:26.896Z,43.33
2022-11-29T15:13:37.431Z,43.92
2022-11-29T15:18:42.300Z,44.66
2022-11-29T15:23:44.682Z,44.97
2022-11-29T15:28:46.913Z,45.35
2022-11-29T15:33:54.846Z,45.46
2022-11-29T15:38:59.343Z,45.87
2022-11-29T15:44:04.674Z,45.99
2022-11-29T15:49:18.183Z,46.01
2022-11-29T15:54:49.576Z,46.14
2022-11-29T15:59:58.241Z,46.84
2022-11-29T16:05:30.279Z,46.71
2022-11-29T16:10:41.821Z,47.63
2022-11-29T16:15:46.150Z,47.81
2022-11-29T16:21:04.343Z,47.89
2022-11-29T16:26:27.403Z,47.76
2022-11-29T16:31:38.795Z,48.65
2022-11-29T16:36:40.792Z,49.48
2022-11-29T16:42:03.791Z,49.81
2022-11-29T16:47:18.154Z,50.41
2022-11-29T16:52:30.119Z,51.30
2022-11-29T16:57:45.367Z,51.63
2022-11-29T17:02:47.566Z,52.11
2022-11-29T17:07:53.757Z,52.66
2022-11-29T17:12:55.857Z,53.36
2022-11-29T17:17:59.188Z,53.88
2022-11-29T17:23:01.701Z,54.12
2022-11-29T17:28:06.593Z,55.36
2022-11-29T17:33:09.693Z,55.79
2022-11-29T17:38:12.239Z,56.44
2022-11-29T17:43:17.895Z,56.79
2022-11-29T17:48:19.872Z,56.97
2022-11-29T17:53:22.004Z,57.17
2022-11-29T17:58:25.357Z,57.38
2022-11-29T18:03:28.803Z,57.95
2022-11-29T18:08:31.795Z,57.81
2022-11-29T18:13:37.042Z,58.19
2022-11-29T18:18:39.680Z,58.09
2022-11-29T18:23:42.950Z,58.46
2022-11-29T18:28:48.118Z,58.73
2022-11-29T18:33:53.996Z,58.69
2022-11-29T18:39:05.933Z,58.55
2022-11-29T18:44:11.271Z,59.29
2022-11-29T18:49:19.067Z,59.68
2022-11-29T18:54:26.421Z,59.59
2022-11-29T18:59:32.185Z,59.24
2022-11-29T19:04:41.791Z,59.55
2022-11-29T19:09:43.863Z,59.46
2022-11-29T19:14:49.850Z,59.24
2022-11-29T19:19:54.362Z,58.72
2022-11-29T19:24:56.776Z,58.46
2022-11-29T19:29:59.638Z,58.45
2022-11-29T19:35:05.284Z,58.47
2022-11-29T19:40:16.324Z,58.34
2022-11-29T19:45:18.511Z,58.48
2022-11-29T19:50:20.550Z,58.49
2022-11-29T19:55:22.976Z,58.57
2022-11-29T20:00:24.961Z,58.56
2022-11-29T20:05:27.293Z,58.74
2022-11-29T20:10:29.501Z,58.85
2022-11-29T20:15:31.593Z,59.94
2022-11-29T20:20:34.483Z,59.14
2022-11-29T20:25:40.491Z,59.65
2022-11-29T20:30:46.243Z,59.50
2022-11-29T20:36:09.681Z,59.54
2022-11-29T20:41:23.661Z,60.54
2022-11-29T20:46:26.162Z,59.37
2022-11-29T20:52:05.459Z,60.18
2022-11-29T20:57:09.046Z,59.85
2022-11-29T21:02:11.106Z,59.67
2022-11-29T21:07:13.090Z,59.71
2022-11-29T21:12:15.732Z,60.07
2022-11-29T21:17:19.614Z,60.12
2022-11-29T21:22:52.894Z,62.44
2022-11-29T21:27:55.376Z,61.97
2022-11-29T21:32:57.570Z,60.86
2022-11-29T21:38:04.074Z,61.98
2022-11-29T21:43:20.729Z,62.81
2022-11-29T21:48:38.576Z,62.29
2022-11-29T21:53:50.804Z,62.50
2022-11-29T21:58:56.821Z,61.89
2022-11-29T22:03:58.864Z,62.57
2022-11-29T22:09:02.932Z,64.35
2022-11-29T22:14:14.316Z,63.77
2022-11-29T22:19:19.726Z,64.21
2022-11-29T22:24:24.277Z,65.47
2022-11-29T22:29:26.318Z,65.15
2022-11-29T22:34:30.308Z,66.15
2022-11-29T22:39:32.347Z,65.35
2022-11-29T22:44:34.401Z,66.27
2022-11-29T22:49:40.207Z,65.47
2022-11-29T22:54:42.587Z,67.08
2022-11-29T22:59:48.438Z,65.62
2022-11-29T23:04:54.474Z,67.10
2022-11-29T23:09:56.598Z,66.15
2022-11-29T23:14:58.838Z,66.60
2022-11-29T23:20:00.925Z,66.46
2022-11-29T23:25:07.275Z,66.82
2022-11-29T23:30:14.560Z,66.47
2022-11-29T23:35:16.480Z,66.52
2022-11-29T23:40:18.869Z,67.93
2022-11-29T23:45:30.150Z,66.94
2022-11-29T23:50:32.301Z,67.39
2022-11-29T23:55:34.218Z,67.78
